Time;durP1;ratioP1;P1;durP2;ratioP2;P2;SDS_P1;SDS_P2;PMS_P1;PMS_P2;Temp;Humidity;BMP_temperature;BMP_pressure;BME280_temperature;BME280_humidity;BME280_pressure;Samples;Min_cycle;Max_cycle;Signal;HPM_P1;HPM_P2
2022/08/01 00:00:25;;;;;;;5.38;2.17;;;;;;;21.95;41.64;92690.47;5011478;28;20106;-74
2022/08/01 00:02:51;;;;;;;4.97;2.20;;;;;;;21.95;41.56;92695.00;5011075;28;20109;-73
2022/08/01 00:05:16;;;;;;;5.30;1.98;;;;;;;21.96;41.58;92688.56;5026532;28;20033;-73
2022/08/01 00:07:42;;;;;;;3.10;2.00;;;;;;;21.95;41.64;92693.13;5011780;28;20091;-73
2022/08/01 00:10:11;;;;;;;4.07;2.05;;;;;;;21.95;41.33;92687.81;5011471;28;20049;-73
2022/08/01 00:12:37;;;;;;;6.25;2.10;;;;;;;21.97;41.31;92690.88;5011447;28;20026;-73
2022/08/01 00:15:05;;;;;;;3.63;2.20;;;;;;;22.00;41.21;92689.41;5011347;28;20120;-73
2022/08/01 00:17:31;;;;;;;4.03;1.88;;;;;;;22.01;41.13;92689.03;5026367;28;20037;-73
2022/08/01 00:19:57;;;;;;;3.40;1.90;;;;;;;22.08;40.81;92691.06;5010102;28;20033;-73
2022/08/01 00:22:22;;;;;;;4.22;2.20;;;;;;;22.09;40.89;92692.63;5011337;28;20111;-73
2022/08/01 00:24:48;;;;;;;3.80;2.10;;;;;;;22.10;40.69;92699.50;5011242;28;20455;-73
2022/08/01 00:27:13;;;;;;;3.90;2.20;;;;;;;22.09;40.85;92697.97;5010010;28;20121;-73
2022/08/01 00:29:39;;;;;;;4.32;2.22;;;;;;;22.10;40.81;92691.50;5011199;28;20130;-73
2022/08/01 00:32:05;;;;;;;5.88;1.90;;;;;;;22.09;40.81;92697.97;5012837;28;20042;-73
2022/08/01 00:34:30;;;;;;;4.47;1.95;;;;;;;22.07;40.86;92694.09;5015332;28;20058;-73
2022/08/01 00:36:56;;;;;;;5.63;2.20;;;;;;;22.02;40.98;92692.47;4997596;28;20073;-74
2022/08/01 00:39:21;;;;;;;4.00;1.83;;;;;;;21.99;41.06;92693.94;5015190;28;20029;-73
2022/08/01 00:41:47;;;;;;;3.33;2.00;;;;;;;21.99;41.03;92688.63;5015023;28;20092;-73
2022/08/01 00:44:12;;;;;;;5.35;1.90;;;;;;;21.97;40.91;92690.88;5013883;28;20045;-74
2022/08/01 00:46:38;;;;;;;4.35;2.15;;;;;;;21.94;41.18;92694.25;5013806;28;20041;-73
2022/08/01 00:49:04;;;;;;;3.42;1.90;;;;;;;21.91;41.20;92686.97;5014916;28;20104;-73
2022/08/01 00:51:30;;;;;;;3.40;2.10;;;;;;;21.88;41.23;92692.22;5015004;28;20025;-73
2022/08/01 00:53:56;;;;;;;3.97;1.95;;;;;;;21.85;41.19;92687.59;5014772;28;20089;-73
2022/08/01 00:56:24;;;;;;;4.95;2.10;;;;;;;21.86;41.11;92691.78;5015354;28;20048;-73
2022/08/01 00:58:50;;;;;;;6.32;2.50;;;;;;;21.83;41.30;92683.38;5029954;28;20026;-72
2022/08/01 01:01:15;;;;;;;5.53;2.15;;;;;;;21.80;41.49;92686.75;5013332;28;20041;-73
2022/08/01 01:03:41;;;;;;;3.50;2.10;;;;;;;21.78;41.52;92688.22;5030070;28;20044;-73
2022/08/01 01:06:34;;;;;;;5.18;2.17;;;;;;;21.75;41.47;92695.03;5029744;28;20037;-73
2022/08/01 01:09:06;;;;;;;3.45;2.10;;;;;;;21.74;41.60;92688.16;5013308;28;20038;-73
2022/08/01 01:11:41;;;;;;;3.47;2.00;;;;;;;21.73;41.26;92689.28;5014826;28;20026;-73
2022/08/01 01:14:19;;;;;;;4.13;2.00;;;;;;;21.78;41.21;92673.00;5014552;28;20052;-73
2022/08/01 01:16:45;;;;;;;3.38;2.22;;;;;;;21.80;41.14;92681.41;5014427;28;20121;-73
2022/08/01 01:19:16;;;;;;;3.40;2.00;;;;;;;21.77;41.29;92679.47;5014377;28;20034;-72
2022/08/01 01:22:08;;;;;;;6.00;2.33;;;;;;;21.74;41.38;92682.81;5014328;28;20045;-73
2022/08/01 01:24:49;;;;;;;3.63;2.10;;;;;;;21.69;41.67;92685.00;5013049;28;20040;-73
2022/08/01 01:27:37;;;;;;;4.40;2.20;;;;;;;21.62;42.18;92680.31;5029588;28;20033;-73
2022/08/01 01:30:03;;;;;;;3.28;1.98;;;;;;;21.55;42.27;92674.84;5014635;28;20063;-73
2022/08/01 01:32:41;;;;;;;4.03;2.05;;;;;;;21.49;42.58;92682.31;5012985;28;20041;-73
2022/08/01 01:35:22;;;;;;;4.22;2.28;;;;;;;21.42;42.77;92680.28;5012824;28;20038;-73
2022/08/01 01:37:51;;;;;;;3.38;2.10;;;;;;;21.38;42.92;92676.72;5014010;28;20030;-72
2022/08/01 01:40:19;;;;;;;4.07;2.00;;;;;;;21.34;42.88;92681.22;5014044;28;20033;-73
2022/08/01 01:42:46;;;;;;;6.05;2.00;;;;;;;21.30;42.91;92664.41;5012494;28;20046;-72
2022/08/01 01:45:14;;;;;;;4.40;1.80;;;;;;;21.25;43.20;92670.00;5029053;28;20080;-73
2022/08/01 01:47:41;;;;;;;5.28;2.08;;;;;;;21.21;43.45;92674.50;5029127;28;20030;-73
2022/08/01 01:50:11;;;;;;;3.60;2.03;;;;;;;21.21;43.66;92674.50;5013915;28;20038;-73
2022/08/01 01:52:39;;;;;;;4.53;2.05;;;;;;;21.23;42.69;92674.88;5013556;28;20026;-73
2022/08/01 01:55:07;;;;;;;3.85;1.90;;;;;;;21.25;42.45;92670.00;5013663;28;20052;-73
2022/08/01 01:57:37;;;;;;;3.20;1.98;;;;;;;21.29;42.61;92678.06;5012525;28;20038;-73
2022/08/01 02:00:06;;;;;;;4.10;2.20;;;;;;;21.28;42.31;92677.28;5013572;28;20034;-73
2022/08/01 02:02:33;;;;;;;3.83;2.10;;;;;;;21.35;42.27;92676.69;5012467;28;20037;-73
2022/08/01 02:05:00;;;;;;;5.15;2.03;;;;;;;21.32;42.49;92672.03;5013574;28;20377;-73
2022/08/01 02:07:27;;;;;;;4.22;1.88;;;;;;;21.32;42.22;92667.50;5013997;28;20347;-73
2022/08/01 02:09:54;;;;;;;3.80;2.00;;;;;;;21.34;42.32;92669.78;5013503;28;20104;-74
2022/08/01 02:12:21;;;;;;;5.90;2.00;;;;;;;21.31;42.49;92675.81;5012166;28;20025;-74
2022/08/01 02:14:49;;;;;;;4.47;2.10;;;;;;;21.24;42.71;92668.47;5013736;28;20045;-73
2022/08/01 02:17:18;;;;;;;7.50;2.17;;;;;;;21.19;43.09;92671.41;5013361;28;20419;-73
2022/08/01 02:19:44;;;;;;;4.25;1.98;;;;;;;21.15;43.06;92673.22;5012005;28;20034;-73
2022/08/01 02:22:22;;;;;;;7.47;2.20;;;;;;;21.14;42.97;92668.97;5013193;28;20037;-73
2022/08/01 02:25:18;;;;;;;5.68;2.03;;;;;;;21.13;43.09;92672.78;5013235;28;20034;-73
2022/08/01 02:27:51;;;;;;;4.68;1.90;;;;;;;21.10;42.80;92668.91;5013505;28;20064;-73
2022/08/01 02:30:17;;;;;;;4.07;2.00;;;;;;;21.11;42.85;92670.44;5011898;28;20033;-73
2022/08/01 02:32:47;;;;;;;3.88;1.98;;;;;;;21.11;42.92;92677.66;5011695;28;20038;-73
2022/08/01 02:35:27;;;;;;;3.35;1.92;;;;;;;21.11;42.49;92670.44;5011742;28;20038;-73
2022/08/01 02:37:55;;;;;;;3.80;1.90;;;;;;;21.14;42.54;92669.78;5012962;28;20500;-73
2022/08/01 02:40:21;;;;;;;3.33;2.03;;;;;;;21.13;42.71;92670.88;5012745;28;20025;-73
2022/08/01 02:42:52;;;;;;;4.07;2.08;;;;;;;21.17;42.25;92673.63;5012732;28;20451;-72
2022/08/01 02:45:20;;;;;;;4.57;1.98;;;;;;;21.18;42.21;92669.84;5012690;28;20395;-73
2022/08/01 02:47:49;;;;;;;4.88;2.00;;;;;;;21.19;42.42;92671.41;5012813;28;20026;-73
2022/08/01 02:50:17;;;;;;;3.97;2.00;;;;;;;21.19;42.43;92674.06;5012720;28;20046;-72
2022/08/01 02:52:45;;;;;;;5.43;2.42;;;;;;;21.17;42.49;92674.41;5013044;28;20072;-73
2022/08/01 02:55:13;;;;;;;3.85;2.08;;;;;;;21.16;42.45;92674.72;5012136;28;20519;-73
2022/08/01 02:57:40;;;;;;;4.70;1.90;;;;;;;21.16;42.48;92674.72;5011412;28;20061;-73
2022/08/01 03:00:06;;;;;;;4.28;1.98;;;;;;;21.20;42.09;92675.59;5012615;28;20053;-73
2022/08/01 03:02:35;;;;;;;4.10;2.03;;;;;;;21.20;41.91;92671.03;5011074;28;20135;-73
2022/08/01 03:05:02;;;;;;;3.35;2.00;;;;;;;21.28;41.27;92679.97;5012394;28;20454;-73
2022/08/01 03:07:29;;;;;;;4.93;2.10;;;;;;;21.34;41.24;92675.88;5012423;28;20052;-73
2022/08/01 03:09:57;;;;;;;3.97;1.83;;;;;;;21.37;41.42;92680.53;5012388;28;20128;-73
2022/08/01 03:12:27;;;;;;;4.10;1.80;;;;;;;21.38;41.38;92681.28;5012292;28;20033;-73
2022/08/01 03:14:56;;;;;;;4.30;2.00;;;;;;;21.32;41.86;92672.81;5012714;28;20208;-73
2022/08/01 03:17:25;;;;;;;3.63;1.90;;;;;;;21.38;41.15;92676.72;5012263;28;20034;-73
2022/08/01 03:19:52;;;;;;;5.63;2.20;;;;;;;21.39;41.04;92677.50;5027779;28;20030;-73
2022/08/01 03:22:21;;;;;;;3.45;1.92;;;;;;;21.39;41.18;92680.94;5012115;28;20072;-73
2022/08/01 03:24:51;;;;;;;4.65;1.92;;;;;;;21.41;41.20;92681.41;5012032;28;20052;-73
2022/08/01 03:27:19;;;;;;;4.13;1.80;;;;;;;21.37;41.33;92683.19;5011969;28;20036;-73
2022/08/01 03:29:46;;;;;;;4.65;2.08;;;;;;;21.31;41.60;92676.59;4994461;28;20029;-73
2022/08/01 03:32:13;;;;;;;3.47;1.90;;;;;;;21.25;42.03;92677.22;4994702;28;20435;-73
2022/08/01 03:34:40;;;;;;;3.75;2.08;;;;;;;21.26;42.09;92673.44;5011974;28;20030;-73
2022/08/01 03:37:10;;;;;;;5.68;2.17;;;;;;;21.24;41.80;92676.44;5012091;28;20483;-73
2022/08/01 03:40:00;;;;;;;5.35;2.10;;;;;;;21.19;42.07;92674.06;5011147;28;20125;-73
2022/08/01 03:42:36;;;;;;;6.25;2.20;;;;;;;21.12;42.50;92673.88;5011336;28;20121;-72
2022/08/01 03:45:10;;;;;;;4.72;2.13;;;;;;;21.07;42.53;92674.16;5010726;28;20048;-73
2022/08/01 03:47:37;;;;;;;5.93;2.17;;;;;;;21.03;42.84;92670.63;5026940;28;20029;-73
2022/08/01 03:50:06;;;;;;;9.07;2.00;;;;;;;20.97;43.00;92668.25;5010688;28;20033;-73
2022/08/01 03:52:34;;;;;;;4.60;2.00;;;;;;;20.92;43.29;92671.19;5012018;28;20033;-73
2022/08/01 03:55:04;;;;;;;4.07;1.95;;;;;;;20.88;43.25;92677.53;5011488;28;20050;-73
2022/08/01 03:57:31;;;;;;;4.55;2.03;;;;;;;20.83;43.58;92675.13;5011627;28;20120;-73
2022/08/01 03:59:58;;;;;;;5.55;2.10;;;;;;;20.78;43.82;92674.28;5011509;28;20034;-72
2022/08/01 04:02:26;;;;;;;6.30;2.10;;;;;;;20.75;43.92;92676.88;5011427;28;20029;-73
2022/08/01 04:04:52;;;;;;;4.40;2.20;;;;;;;20.70;43.96;92680.56;5011107;28;20074;-73
2022/08/01 04:07:22;;;;;;;4.82;2.20;;;;;;;20.66;44.27;92677.03;5026209;28;20061;-73
2022/08/01 04:09:48;;;;;;;4.97;2.00;;;;;;;20.60;44.40;92675.75;5011421;28;20394;-73
2022/08/01 04:12:13;;;;;;;3.50;2.08;;;;;;;20.57;44.57;92668.47;5011490;28;20042;-72
2022/08/01 04:14:39;;;;;;;4.68;2.22;;;;;;;20.54;44.62;92682.44;5010281;28;20053;-73
2022/08/01 04:17:04;;;;;;;3.25;1.98;;;;;;;20.53;44.43;92680.88;5011212;28;20032;-72
2022/08/01 04:19:30;;;;;;;4.20;2.13;;;;;;;20.54;44.25;92679.75;5011385;28;20064;-73
2022/08/01 04:21:56;;;;;;;4.03;2.10;;;;;;;20.57;44.17;92679.09;5009976;28;20092;-73
2022/08/01 04:24:24;;;;;;;5.50;2.15;;;;;;;20.58;44.07;92684.09;5011551;28;20033;-73
2022/08/01 04:26:50;;;;;;;5.47;1.75;;;;;;;20.61;44.15;92687.19;4993644;28;20088;-73
2022/08/01 04:29:17;;;;;;;4.72;2.00;;;;;;;20.62;44.23;92683.38;5009998;28;20026;-73
2022/08/01 04:31:46;;;;;;;4.00;2.10;;;;;;;20.62;44.23;92678.06;5011192;28;20427;-73
2022/08/01 04:34:15;;;;;;;3.50;2.00;;;;;;;20.65;44.57;92682.69;5009831;28;20038;-72
2022/08/01 04:36:42;;;;;;;5.43;1.95;;;;;;;20.67;44.51;92685.78;5009826;28;20111;-73
2022/08/01 04:39:09;;;;;;;5.93;2.03;;;;;;;20.67;44.75;92675.94;5009955;28;20087;-72
2022/08/01 04:41:36;;;;;;;3.60;2.10;;;;;;;20.66;44.77;92681.59;5011049;28;20038;-73
2022/08/01 04:44:02;;;;;;;3.38;1.98;;;;;;;20.64;44.79;92676.59;5009830;28;20061;-73
2022/08/01 04:46:29;;;;;;;4.20;2.10;;;;;;;20.66;44.20;92685.00;5011001;28;20109;-73
2022/08/01 04:48:56;;;;;;;3.70;1.92;;;;;;;20.69;44.80;92694.19;5009973;28;20088;-73
2022/08/01 04:51:22;;;;;;;3.08;1.90;;;;;;;20.71;45.14;92683.97;5011095;28;20033;-73
2022/08/01 04:53:48;;;;;;;4.15;2.13;;;;;;;20.76;44.96;92689.03;5010740;28;20128;-73
2022/08/01 04:56:14;;;;;;;5.65;2.10;;;;;;;20.80;44.67;92692.56;5009572;28;20495;-73
2022/08/01 04:58:43;;;;;;;9.10;2.20;;;;;;;20.85;44.63;92684.34;5010974;28;20040;-73
2022/08/01 05:01:10;;;;;;;4.13;1.90;;;;;;;20.91;44.81;92684.81;5010890;28;20038;-73
2022/08/01 05:03:36;;;;;;;3.47;1.83;;;;;;;20.96;45.36;92681.91;5009676;28;20480;-73
2022/08/01 05:06:02;;;;;;;4.72;1.92;;;;;;;21.07;43.91;92682.13;5011225;28;20441;-73
2022/08/01 05:08:27;;;;;;;4.45;1.95;;;;;;;21.09;44.41;92679.91;5010844;28;20060;-73
2022/08/01 05:10:53;;;;;;;3.63;1.90;;;;;;;21.11;44.88;92680.34;5009674;28;20037;-73
2022/08/01 05:13:19;;;;;;;3.42;1.90;;;;;;;21.08;45.66;92679.13;5010564;28;20034;-73
2022/08/01 05:15:45;;;;;;;4.30;1.83;;;;;;;21.06;46.28;92681.38;5010707;28;20042;-73
2022/08/01 05:18:11;;;;;;;3.40;1.95;;;;;;;21.07;46.30;92682.13;5011963;28;20091;-73
2022/08/01 05:20:37;;;;;;;5.22;2.03;;;;;;;21.09;46.71;92686.00;5029638;28;20041;-73
2022/08/01 05:23:06;;;;;;;3.40;1.80;;;;;;;21.12;47.01;92687.19;5012992;28;20053;-73
2022/08/01 05:25:31;;;;;;;3.67;1.90;;;;;;;21.12;46.89;92685.31;5012980;28;20734;-73
2022/08/01 05:27:58;;;;;;;4.22;2.15;;;;;;;21.16;47.18;92691.47;5012636;28;20037;-74
2022/08/01 05:30:24;;;;;;;4.32;1.90;;;;;;;21.21;47.25;92693.88;4996656;28;20068;-72
2022/08/01 05:32:49;;;;;;;3.35;1.98;;;;;;;21.29;46.71;92689.47;5013026;28;20061;-73
2022/08/01 05:35:15;;;;;;;3.17;1.92;;;;;;;21.35;49.88;92682.75;5014100;28;20049;-73
2022/08/01 05:37:41;;;;;;;3.83;2.10;;;;;;;21.42;49.50;92688.25;5014014;28;20083;-74
2022/08/01 05:40:07;;;;;;;5.25;2.20;;;;;;;21.46;48.84;92687.56;5014384;28;20034;-73
2022/08/01 05:42:32;;;;;;;3.88;2.05;;;;;;;21.50;48.13;92691.84;4996182;28;20049;-74
2022/08/01 05:44:58;;;;;;;5.95;2.40;;;;;;;21.58;48.52;92693.53;5012262;28;20049;-73
2022/08/01 05:47:23;;;;;;;3.15;2.03;;;;;;;21.66;48.29;92686.47;5012946;28;20026;-73
2022/08/01 05:49:49;;;;;;;3.42;2.08;;;;;;;21.72;48.87;92689.63;5013941;28;20436;-73
2022/08/01 05:52:15;;;;;;;3.65;2.10;;;;;;;21.83;49.62;92698.59;5012511;28;20419;-73
2022/08/01 05:54:40;;;;;;;3.70;2.10;;;;;;;21.90;49.31;92690.72;5013601;28;20057;-73
2022/08/01 05:57:06;;;;;;;2.90;1.90;;;;;;;21.99;49.44;92695.84;5012348;28;20049;-74
2022/08/01 05:59:31;;;;;;;3.22;2.03;;;;;;;22.07;49.06;92694.88;5013775;28;20136;-74
2022/08/01 06:01:57;;;;;;;3.83;2.17;;;;;;;22.16;49.03;92689.31;5012289;28;20037;-73
2022/08/01 06:04:23;;;;;;;3.35;2.00;;;;;;;22.33;48.59;92701.44;5012061;28;20120;-74
2022/08/01 06:06:48;;;;;;;5.22;2.00;;;;;;;22.83;47.33;92699.63;5013485;28;20084;-73
2022/08/01 06:09:14;;;;;;;3.35;2.00;;;;;;;23.81;45.37;92700.66;5013480;28;20415;-74
2022/08/01 06:11:40;;;;;;;4.85;2.10;;;;;;;24.80;42.40;92695.97;5013485;28;20125;-74
2022/08/01 06:14:06;;;;;;;3.45;1.90;;;;;;;25.67;41.09;92693.50;5013386;28;20042;-74
2022/08/01 06:16:32;;;;;;;3.40;2.05;;;;;;;26.31;39.93;92697.59;5013364;28;20048;-74
2022/08/01 06:18:57;;;;;;;6.80;2.05;;;;;;;26.92;40.00;92703.09;5013530;28;20042;-76
2022/08/01 06:21:23;;;;;;;5.22;2.00;;;;;;;27.37;38.86;92700.78;5008740;28;20061;-76
2022/08/01 06:23:51;;;;;;;5.32;1.90;;;;;;;27.42;38.17;92703.06;4994133;28;20038;-75
2022/08/01 06:26:20;;;;;;;4.35;2.00;;;;;;;27.75;38.01;92698.38;5019689;28;20043;-74
2022/08/01 06:28:46;;;;;;;4.05;2.13;;;;;;;28.34;38.10;92703.16;5012736;28;20125;-74
2022/08/01 06:31:13;;;;;;;4.40;2.30;;;;;;;28.40;37.91;92705.06;5009894;28;20130;-76
2022/08/01 06:33:40;;;;;;;5.40;2.30;;;;;;;28.91;37.37;92699.38;5009523;28;20400;-77
2022/08/01 06:36:06;;;;;;;4.40;2.20;;;;;;;29.55;36.48;92706.19;5009075;28;20108;-74
2022/08/01 06:38:31;;;;;;;6.65;2.08;;;;;;;29.20;35.29;92708.03;5012290;28;20339;-75
2022/08/01 06:40:57;;;;;;;3.25;2.10;;;;;;;28.94;35.86;92710.13;5007742;28;20050;-74
2022/08/01 06:43:23;;;;;;;5.55;2.17;;;;;;;28.86;36.66;92703.25;5008060;28;20050;-75
2022/08/01 06:45:49;;;;;;;5.30;2.20;;;;;;;28.99;36.19;92698.16;5020226;28;20107;-75
2022/08/01 06:48:15;;;;;;;3.50;2.05;;;;;;;28.52;36.38;92708.50;5010886;28;20042;-74
2022/08/01 06:50:40;;;;;;;5.75;2.70;;;;;;;28.17;37.81;92710.19;5023289;28;20040;-75
2022/08/01 06:53:06;;;;;;;4.32;2.22;;;;;;;27.74;37.72;92704.91;5034012;28;20073;-74
2022/08/01 06:55:32;;;;;;;4.63;2.00;;;;;;;27.86;38.27;92706.47;5013996;28;20040;-74
2022/08/01 06:57:57;;;;;;;3.67;2.10;;;;;;;28.19;38.29;92700.56;4988448;28;20069;-75
2022/08/01 07:00:25;;;;;;;4.60;2.15;;;;;;;28.30;38.61;92705.88;5013064;28;20037;-75
2022/08/01 07:02:56;;;;;;;3.53;2.00;;;;;;;27.90;38.30;92704.50;5009673;28;20539;-75
2022/08/01 07:05:22;;;;;;;4.95;2.38;;;;;;;27.42;39.38;92705.75;5008942;28;20034;-74
2022/08/01 07:07:49;;;;;;;5.80;2.10;;;;;;;27.45;39.67;92698.84;5012418;28;20030;-76
2022/08/01 07:10:14;;;;;;;6.00;2.10;;;;;;;27.06;39.60;92705.00;4995941;28;20454;-76
2022/08/01 07:12:40;;;;;;;5.40;2.13;;;;;;;26.76;39.60;92698.84;5010128;28;20042;-76
2022/08/01 07:15:10;;;;;;;3.92;2.10;;;;;;;26.18;41.25;92702.53;5012885;28;20357;-76
2022/08/01 07:17:40;;;;;;;6.35;2.40;;;;;;;26.23;41.25;92702.19;5011020;28;20044;-76
2022/08/01 07:20:12;;;;;;;5.38;2.15;;;;;;;26.09;41.24;92705.56;5012187;28;20030;-76
2022/08/01 07:22:39;;;;;;;;;;;;;;;26.18;41.79;92703.28;5012740;28;20037;-76
2022/08/01 07:25:08;;;;;;;4.05;2.30;;;;;;;26.13;42.20;92710.97;5010779;28;19920;-76
2022/08/01 07:27:34;;;;;;;3.80;2.22;;;;;;;26.14;41.66;92704.44;5012173;28;20056;-76
2022/08/01 07:30:00;;;;;;;3.78;2.08;;;;;;;26.49;42.30;92703.00;4991777;28;20035;-76
2022/08/01 07:32:25;;;;;;;5.20;2.22;;;;;;;26.55;41.38;92696.16;5012301;28;20036;-76
2022/08/01 07:34:51;;;;;;;4.10;2.20;;;;;;;26.28;41.98;92711.78;5011377;28;20042;-75
2022/08/01 07:37:17;;;;;;;7.43;2.40;;;;;;;26.09;44.75;92702.88;5011916;28;20474;-76
2022/08/01 07:39:42;;;;;;;5.22;2.10;;;;;;;26.31;43.70;92709.09;5011865;28;20041;-76
2022/08/01 07:42:08;;;;;;;6.38;2.22;;;;;;;26.02;43.46;92704.78;5026765;28;20048;-76
2022/08/01 07:44:34;;;;;;;5.30;2.80;;;;;;;25.98;44.48;92702.09;5011840;28;20090;-77
2022/08/01 07:47:00;;;;;;;8.88;2.50;;;;;;;26.01;43.46;92703.25;5009609;28;20522;-77
2022/08/01 07:49:26;;;;;;;3.35;2.13;;;;;;;25.96;45.26;92705.16;5010795;28;20113;-75
2022/08/01 07:51:51;;;;;;;4.32;2.15;;;;;;;26.12;45.62;92704.84;5010467;28;20113;-76
2022/08/01 07:54:17;;;;;;;4.47;2.20;;;;;;;26.31;45.07;92702.97;5010570;28;20069;-76
2022/08/01 07:56:42;;;;;;;4.00;2.40;;;;;;;26.21;45.08;92707.16;5011335;28;20065;-75
2022/08/01 07:59:08;;;;;;;4.28;2.40;;;;;;;26.41;44.93;92698.75;5011383;28;20037;-76
2022/08/01 08:01:33;;;;;;;5.28;2.30;;;;;;;26.25;44.86;92707.16;5010652;28;20475;-76
2022/08/01 08:03:59;;;;;;;4.07;2.40;;;;;;;26.33;44.86;92709.47;5010279;28;20480;-77
2022/08/01 08:06:25;;;;;;;4.90;2.20;;;;;;;26.31;45.31;92708.34;5010215;28;20091;-75
2022/08/01 08:08:50;;;;;;;7.75;2.50;;;;;;;26.10;46.55;92699.06;5010640;28;20128;-76
2022/08/01 08:11:16;;;;;;;6.57;2.50;;;;;;;25.93;47.10;92705.13;5011260;28;20471;-76
2022/08/01 08:13:41;;;;;;;4.15;2.20;;;;;;;26.18;47.41;92702.53;5009789;28;20046;-76
2022/08/01 08:16:07;;;;;;;3.30;2.13;;;;;;;26.19;46.88;92706.78;5010310;28;20042;-76
2022/08/01 08:18:32;;;;;;;5.38;2.50;;;;;;;26.07;46.75;92710.53;5010689;28;20385;-77
2022/08/01 08:20:58;;;;;;;4.55;2.20;;;;;;;26.25;45.75;92702.56;5026165;28;20096;-76
2022/08/01 08:26:07;;;;;;;5.22;2.33;;;;;;;25.98;47.72;92712.81;4991231;28;20049;-76
2022/08/01 08:28:33;;;;;;;3.70;2.30;;;;;;;26.19;47.29;92709.44;4991798;28;20476;-76
2022/08/01 08:30:58;;;;;;;3.53;2.25;;;;;;;26.02;46.66;92710.91;5006298;28;20042;-76
2022/08/01 08:33:24;;;;;;;5.93;2.58;;;;;;;25.99;46.76;92708.25;4991783;28;20485;-76
2022/08/01 08:35:49;;;;;;;4.07;2.50;;;;;;;26.12;45.88;92710.19;5009399;28;20034;-77
2022/08/01 08:38:15;;;;;;;4.13;2.13;;;;;;;26.17;45.46;92712.50;5007130;28;20042;-76
2022/08/01 08:40:41;;;;;;;3.55;2.20;;;;;;;26.17;45.00;92711.75;5006397;28;20072;-77
2022/08/01 08:43:06;;;;;;;4.90;2.30;;;;;;;26.27;44.29;92716.34;5008484;28;20030;-76
2022/08/01 08:45:33;;;;;;;4.57;2.47;;;;;;;26.27;45.32;92710.22;5000858;28;20515;-77
2022/08/01 08:47:59;;;;;;;4.72;2.40;;;;;;;26.30;44.11;92709.47;5011108;28;20417;-76
2022/08/01 08:50:28;;;;;;;6.68;2.40;;;;;;;26.31;43.28;92716.38;5001482;28;20026;-73
2022/08/01 08:52:55;;;;;;;3.88;2.47;;;;;;;26.18;44.22;92711.34;5009782;28;20054;-77
2022/08/01 08:55:20;;;;;;;6.80;2.40;;;;;;;26.32;43.78;92707.97;5006536;28;20038;-78
2022/08/01 08:57:47;;;;;;;4.35;2.75;;;;;;;26.25;43.67;92713.28;4996381;28;20139;-76
2022/08/01 09:00:14;;;;;;;4.50;2.40;;;;;;;26.29;43.83;92710.63;5003766;28;20057;-75
2022/08/01 09:02:46;;;;;;;4.13;2.70;;;;;;;26.61;44.10;92707.25;5002993;28;20037;-75
2022/08/01 09:05:12;;;;;;;4.25;2.30;;;;;;;26.67;41.59;92711.88;5012958;28;20042;-75
2022/08/01 09:07:37;;;;;;;3.97;2.40;;;;;;;26.68;42.95;92716.13;5014374;28;20080;-75
2022/08/01 09:10:04;;;;;;;4.55;2.42;;;;;;;26.69;41.43;92714.94;5029674;28;20037;-74
2022/08/01 09:12:29;;;;;;;6.25;2.60;;;;;;;26.82;41.85;92718.03;5014317;28;20037;-74
2022/08/01 09:14:55;;;;;;;5.43;2.50;;;;;;;26.83;41.23;92716.13;5014182;28;20034;-74
2022/08/01 09:17:20;;;;;;;4.63;2.38;;;;;;;26.87;41.50;92719.59;5013056;28;20029;-75
2022/08/01 09:19:52;;;;;;;4.05;2.50;;;;;;;26.79;40.93;92719.59;5013067;28;20408;-74
2022/08/01 09:22:22;;;;;;;8.10;2.60;;;;;;;26.93;40.98;92723.41;5014376;28;20381;-75
2022/08/01 09:25:08;;;;;;;5.63;2.17;;;;;;;26.82;40.24;92725.31;5014369;28;20049;-75
2022/08/01 09:27:37;;;;;;;4.38;2.40;;;;;;;27.04;39.92;92713.44;5014338;28;20077;-75
2022/08/01 09:30:08;;;;;;;5.05;2.40;;;;;;;27.16;40.58;92715.75;5014242;28;20053;-74
2022/08/01 09:32:33;;;;;;;6.47;2.33;;;;;;;27.28;36.90;92722.66;5013043;28;20037;-74
2022/08/01 09:35:23;;;;;;;5.38;2.22;;;;;;;27.30;34.74;92720.38;5014047;28;20100;-75
2022/08/01 09:37:49;;;;;;;3.95;2.30;;;;;;;27.54;37.07;92716.13;5014257;28;20039;-75
2022/08/01 09:40:14;;;;;;;4.93;2.28;;;;;;;27.62;36.76;92716.84;4980511;28;20060;-75
2022/08/01 09:42:40;;;;;;;4.95;2.20;;;;;;;27.59;35.71;92715.72;5013845;28;20052;-74
2022/08/01 09:45:06;;;;;;;3.83;2.30;;;;;;;27.75;37.09;92711.84;5014182;28;20043;-74
2022/08/01 09:47:38;;;;;;;6.95;2.70;;;;;;;27.82;36.99;92711.81;4980186;28;20030;-74
2022/08/01 09:50:05;;;;;;;4.18;2.50;;;;;;;27.72;35.43;92718.75;5013968;28;20044;-74
2022/08/01 09:52:31;;;;;;;4.45;2.50;;;;;;;27.83;36.77;92716.03;5029075;28;20112;-74
2022/08/01 09:54:59;;;;;;;3.95;2.22;;;;;;;28.08;36.66;92709.81;5013636;28;20054;-74
2022/08/01 09:57:26;;;;;;;5.95;2.45;;;;;;;28.14;36.72;92717.09;5013564;28;20041;-74
2022/08/01 09:59:53;;;;;;;4.10;2.55;;;;;;;28.08;36.07;92709.81;5013809;28;20041;-74
2022/08/01 10:02:33;;;;;;;5.50;2.95;;;;;;;28.26;35.58;92712.44;5028653;28;20117;-74
2022/08/01 10:04:59;;;;;;;4.20;2.42;;;;;;;28.36;35.21;92717.75;5011342;28;20115;-74
2022/08/01 10:07:25;;;;;;;3.78;2.30;;;;;;;28.06;35.15;92706.78;5013565;28;20037;-74
2022/08/01 10:09:51;;;;;;;7.03;2.42;;;;;;;28.23;34.45;92716.69;4993423;28;20128;-75
2022/08/01 10:12:20;;;;;;;4.35;2.40;;;;;;;28.40;35.73;92702.38;4997324;28;20092;-74
2022/08/01 10:14:55;;;;;;;4.03;2.30;;;;;;;28.55;34.39;92707.69;4994004;28;20066;-74
2022/08/01 10:17:24;;;;;;;3.28;1.95;;;;;;;28.62;33.65;92704.97;4993740;28;20045;-74
2022/08/01 10:19:54;;;;;;;3.83;2.17;;;;;;;28.56;33.19;92703.84;4996841;28;20022;-74
2022/08/01 10:22:23;;;;;;;4.78;2.00;;;;;;;28.37;32.79;92700.47;5011817;28;20049;-74
2022/08/01 10:24:54;;;;;;;3.33;1.85;;;;;;;28.42;32.56;92694.66;5010541;28;20037;-74
2022/08/01 10:27:21;;;;;;;3.72;2.58;;;;;;;28.54;36.26;92698.09;5013047;28;20125;-75
2022/08/01 10:29:51;;;;;;;4.78;2.40;;;;;;;28.35;34.03;92694.72;4994913;28;20046;-74
2022/08/01 10:32:18;;;;;;;3.25;2.10;;;;;;;28.57;34.99;92687.28;5007402;28;20513;-73
2022/08/01 10:34:45;;;;;;;5.40;2.10;;;;;;;28.53;33.82;92683.09;5011834;28;20112;-74
2022/08/01 10:37:12;;;;;;;3.60;2.03;;;;;;;28.68;31.11;92676.44;5012140;28;20472;-75
2022/08/01 10:39:39;;;;;;;8.48;2.08;;;;;;;28.70;30.90;92676.06;5028013;28;20030;-74
2022/08/01 10:42:05;;;;;;;4.80;2.10;;;;;;;28.80;31.57;92685.97;5012722;28;20053;-76
2022/08/01 10:44:32;;;;;;;4.35;2.10;;;;;;;28.85;31.28;92674.78;5011453;28;20061;-74
2022/08/01 10:47:21;;;;;;;3.15;2.00;;;;;;;28.82;29.34;92679.06;5011487;28;20216;-74
2022/08/01 10:50:09;;;;;;;3.00;1.90;;;;;;;28.94;30.30;92680.50;5009153;28;20046;-74
2022/08/01 10:52:35;;;;;;;5.18;2.00;;;;;;;28.89;29.98;92678.25;5025597;28;20443;-74
2022/08/01 10:55:06;;;;;;;5.15;2.03;;;;;;;28.73;29.11;92672.56;5011020;28;20064;-74
2022/08/01 10:57:42;;;;;;;3.70;1.90;;;;;;;28.81;29.87;92666.72;5011285;28;20380;-74
2022/08/01 11:00:08;;;;;;;5.53;2.00;;;;;;;28.79;30.63;92669.06;5012495;28;20139;-74
2022/08/01 11:02:40;;;;;;;4.68;1.88;;;;;;;28.98;29.91;92667.78;5012251;28;20123;-74
2022/08/01 11:05:21;;;;;;;3.00;1.95;;;;;;;28.89;28.21;92663.97;5012295;28;20396;-75
2022/08/01 11:07:54;;;;;;;3.10;2.00;;;;;;;28.91;29.19;92657.06;5007358;28;20045;-76
2022/08/01 11:10:19;;;;;;;5.80;2.10;;;;;;;29.00;28.58;92654.66;5010704;28;20303;-78
2022/08/01 11:12:46;;;;;;;5.97;2.00;;;;;;;29.02;27.87;92656.94;5009103;28;20025;-77
2022/08/01 11:15:11;;;;;;;3.17;1.80;;;;;;;28.97;30.66;92652.75;5011506;28;20041;-77
2022/08/01 11:17:48;;;;;;;3.85;2.00;;;;;;;29.25;31.31;92637.53;5010564;28;20116;-78
2022/08/01 11:20:16;;;;;;;3.33;2.03;;;;;;;29.27;28.15;92641.34;5009921;28;20125;-77
2022/08/01 11:23:06;;;;;;;3.40;2.10;;;;;;;29.13;29.97;92638.78;5019004;28;20401;-75
2022/08/01 11:25:37;;;;;;;3.47;2.00;;;;;;;29.15;29.49;92636.44;5011725;28;20038;-76
2022/08/01 11:28:19;;;;;;;5.50;2.00;;;;;;;29.20;28.83;92630.63;5006943;28;20392;-76
2022/08/01 11:30:47;;;;;;;4.45;2.03;;;;;;;29.31;28.39;92630.53;5009496;28;20123;-76
2022/08/01 11:33:14;;;;;;;4.03;2.00;;;;;;;29.45;29.82;92629.59;5007910;28;20404;-75
2022/08/01 11:36:10;;;;;;;5.65;2.20;;;;;;;29.42;30.46;92633.88;5009790;28;20534;-76
2022/08/01 11:38:44;;;;;;;6.05;2.22;;;;;;;29.71;29.30;92628.19;5008325;28;20049;-75
2022/08/01 11:41:14;;;;;;;4.47;1.98;;;;;;;29.30;29.28;92620.91;5008205;28;20034;-76